Page Municipal Airport
KPGA : rendu visible

Aérodrome :











RETROUVEZ-NOUS SUR...

 
LOGIN :

S'inscrire | Disclaimer

   EN    FR    IT 

 









Légende :    VFR   VFR Marginal   IFR   IFR Intensif   IFR Très Intensif
Visi : 
Plafond : 
>= 8 km
>= 3000ft
5 à 8 km
1000 à 3000 ft
1500m à 5 km
500 à 1000 ft
800 à 1500m
200 à 500 ft
< 800m
< 200 ft
Symboles :   Orages  Brouillard  Fortes neiges  Fortes précipitations  Vent > 20 kt






- Altitude de l'aérodrome : 4316 ft


KPGA - Page Municipal

DERNIER METAR :
  • 021553Z AUTO 30011G18KT 10SM FEW075 16/M03 A2978 RMK AO2 SLP036 T01561033 TSNO

METARs EXPIRÉS :
  • 021453Z AUTO 32006KT 10SM CLR 14/M01 A2977 RMK AO2 SLP034 T01441011 53018 TSNO
  • 021353Z AUTO 00000KT 10SM CLR 14/M02 A2975 RMK AO2 SLP025 T01391022 TSNO

TAF KPGA
Valide du 02 à 12h jusqu'au 03 à 12h UTC


021120Z 0212/0312 20014KT P6SM SKC
FM021700 30015G24KT P6SM SCT070
FM030300 VRB06KT P6SM SKC



MET'MAP, la Météo Aéronautique d'un coup d'oeil ! - Copyright ORBIFLY Décembre 2007 - Disclaimer

ORBIFLY MET'MAP TEAM :

Programmation & Développement : Alexandra Zaïnal
Sur une idée originale de : Baudouin d'Aumeries
Assistance à la programmation : Marc-Olivier Méhu
Soutien technique & logistique : Manuel Goepfert

Contact : metmap@orbifly.com




SOURCES & CREDITS :

   NOAA       Earth
Advisory